Time;durP1;ratioP1;P1;durP2;ratioP2;P2;SDS_P1;SDS_P2;PMS_P1;PMS_P2;Temp;Humidity;BMP_temperature;BMP_pressure;BME280_temperature;BME280_humidity;BME280_pressure;Samples;Min_cycle;Max_cycle;Signal;HPM_P1;HPM_P2
2021/05/29 00:00:09;;;;;;;3.05;2.70;;;10.40;99.90;;;;;;5037557;28;20074;-76
2021/05/29 00:02:34;;;;;;;5.90;2.70;;;10.30;99.90;;;;;;5012116;28;20686;-75
2021/05/29 00:05:00;;;;;;;3.63;2.92;;;10.30;99.90;;;;;;5035919;28;20084;-75
2021/05/29 00:07:26;;;;;;;2.72;2.53;;;10.40;99.90;;;;;;5010564;28;20461;-76
2021/05/29 00:09:51;;;;;;;3.67;2.50;;;10.40;99.90;;;;;;5030474;28;20090;-75
2021/05/29 00:12:17;;;;;;;4.78;2.88;;;10.50;99.90;;;;;;5015612;28;20081;-76
2021/05/29 00:14:46;;;;;;;4.53;2.80;;;10.50;99.90;;;;;;5028504;28;20080;-76
2021/05/29 00:17:12;;;;;;;3.10;2.80;;;10.30;99.90;;;;;;5030131;28;20596;-76
2021/05/29 00:19:37;;;;;;;5.25;2.80;;;10.30;99.90;;;;;;5032530;28;20101;-73
2021/05/29 00:22:03;;;;;;;3.80;3.17;;;10.00;99.90;;;;;;5031788;28;20106;-75
2021/05/29 00:24:29;;;;;;;3.03;2.58;;;9.90;99.90;;;;;;5018689;28;20677;-76
2021/05/29 00:26:55;;;;;;;3.72;2.70;;;10.10;99.90;;;;;;5029619;28;20101;-77
2021/05/29 00:29:20;;;;;;;4.18;2.72;;;10.00;99.90;;;;;;5036319;28;20077;-77
2021/05/29 00:31:46;;;;;;;3.50;2.67;;;9.90;99.90;;;;;;5038724;28;20128;-77
2021/05/29 00:34:12;;;;;;;2.92;2.63;;;10.10;99.90;;;;;;5030651;28;20457;-76
2021/05/29 00:36:37;;;;;;;4.85;2.83;;;10.10;99.90;;;;;;5041636;28;20090;-75
2021/05/29 00:39:07;;;;;;;3.30;2.50;;;10.20;99.90;;;;;;5043858;28;20077;-78
2021/05/29 00:41:33;;;;;;;3.53;2.72;;;10.30;99.90;;;;;;5031402;28;20070;-76
2021/05/29 00:43:59;;;;;;;3.25;2.67;;;10.20;99.90;;;;;;5031029;28;20089;-77
2021/05/29 00:46:25;;;;;;;2.85;2.42;;;10.20;99.90;;;;;;5030705;28;20463;-77
2021/05/29 00:48:50;;;;;;;2.97;2.67;;;10.10;99.90;;;;;;5031041;28;20542;-75
2021/05/29 00:51:17;;;;;;;2.40;2.20;;;10.20;99.90;;;;;;5032747;28;20130;-74
2021/05/29 00:53:44;;;;;;;3.00;2.65;;;10.20;99.90;;;;;;5032861;28;20449;-77
2021/05/29 00:56:10;;;;;;;4.45;2.63;;;10.10;99.90;;;;;;5032392;28;20164;-77
2021/05/29 00:58:35;;;;;;;2.72;2.30;;;10.10;99.90;;;;;;5038209;28;20161;-79
2021/05/29 01:01:01;;;;;;;3.22;2.70;;;10.10;99.90;;;;;;5049158;28;20146;-76
2021/05/29 01:03:29;;;;;;;2.78;2.47;;;10.20;99.90;;;;;;5031986;28;20783;-75
2021/05/29 01:05:55;;;;;;;2.70;2.50;;;9.90;99.90;;;;;;5030350;28;20097;-76
2021/05/29 01:08:24;;;;;;;4.32;2.33;;;9.80;99.90;;;;;;5033426;28;20133;-76
2021/05/29 01:10:50;;;;;;;2.78;2.35;;;9.80;99.90;;;;;;5031885;28;20131;-76
2021/05/29 01:13:16;;;;;;;3.30;2.50;;;9.80;99.90;;;;;;5022692;28;20094;-76
2021/05/29 01:15:44;;;;;;;3.42;2.50;;;9.80;99.90;;;;;;5026499;28;20110;-76
2021/05/29 01:18:12;;;;;;;2.33;1.83;;;9.90;99.90;;;;;;5039817;28;20180;-76
2021/05/29 01:20:38;;;;;;;2.67;2.28;;;9.90;99.90;;;;;;5027867;28;20080;-76
2021/05/29 01:23:04;;;;;;;3.25;2.42;;;9.90;99.90;;;;;;5029009;28;20081;-76
2021/05/29 01:25:37;;;;;;;3.17;2.13;;;9.90;99.90;;;;;;5036215;28;20143;-77
2021/05/29 01:28:23;;;;;;;3.55;2.30;;;9.90;99.90;;;;;;5014127;28;20085;-75
2021/05/29 01:30:52;;;;;;;3.17;2.45;;;9.80;99.90;;;;;;5029148;28;20123;-77
2021/05/29 01:33:20;;;;;;;3.72;2.25;;;9.80;99.90;;;;;;5028645;28;20164;-75
2021/05/29 01:35:47;;;;;;;2.28;2.08;;;9.90;99.90;;;;;;5031298;28;20095;-76
2021/05/29 01:38:15;;;;;;;2.25;2.05;;;9.70;99.90;;;;;;5034657;28;20161;-76
2021/05/29 01:40:42;;;;;;;3.83;2.33;;;9.80;99.90;;;;;;5037140;28;20488;-76
2021/05/29 01:43:09;;;;;;;3.05;2.25;;;9.80;99.90;;;;;;5011270;28;20082;-76
2021/05/29 01:45:37;;;;;;;2.45;2.10;;;9.70;99.90;;;;;;5026519;28;20070;-75
2021/05/29 01:48:04;;;;;;;4.38;2.05;;;9.70;99.90;;;;;;5029900;28;20108;-75
2021/05/29 01:50:31;;;;;;;3.97;2.33;;;9.70;99.90;;;;;;5011506;28;20093;-76
2021/05/29 01:52:59;;;;;;;2.47;2.10;;;9.70;99.90;;;;;;5028294;28;20148;-75
2021/05/29 01:55:27;;;;;;;3.00;1.85;;;9.70;99.90;;;;;;5028869;28;20070;-76
2021/05/29 01:57:55;;;;;;;2.15;1.95;;;9.70;99.90;;;;;;5040056;28;20073;-75
2021/05/29 02:00:23;;;;;;;2.38;2.15;;;9.60;99.90;;;;;;5044743;28;20065;-75
2021/05/29 02:02:48;;;;;;;5.05;2.17;;;9.60;99.90;;;;;;5030224;28;20092;-77
2021/05/29 02:05:20;;;;;;;2.60;2.22;;;9.60;99.90;;;;;;5015465;28;20157;-75
2021/05/29 02:07:46;;;;;;;2.22;2.03;;;9.40;99.90;;;;;;5027900;28;20089;-76
2021/05/29 02:10:15;;;;;;;1.83;1.63;;;9.60;99.90;;;;;;5034574;28;20147;-75
2021/05/29 02:12:43;;;;;;;2.08;1.83;;;9.60;99.90;;;;;;5039626;28;20125;-75
2021/05/29 02:15:10;;;;;;;2.03;1.88;;;9.50;99.90;;;;;;5028126;28;20073;-74
2021/05/29 02:17:36;;;;;;;2.47;2.28;;;9.60;99.90;;;;;;5037848;28;20086;-75
2021/05/29 02:20:03;;;;;;;3.70;2.00;;;9.60;99.90;;;;;;5035574;28;20595;-77
2021/05/29 02:22:29;;;;;;;2.88;2.08;;;9.60;99.90;;;;;;5030544;28;20538;-76
2021/05/29 02:24:54;;;;;;;2.15;1.88;;;9.50;99.90;;;;;;5030940;28;20082;-77
2021/05/29 02:27:20;;;;;;;3.25;1.80;;;9.50;99.90;;;;;;5029350;28;20192;-76
2021/05/29 02:29:45;;;;;;;2.13;2.00;;;9.50;99.90;;;;;;5039296;28;20077;-77
2021/05/29 02:32:11;;;;;;;4.25;2.08;;;9.40;99.90;;;;;;5033662;28;20093;-76
2021/05/29 02:34:36;;;;;;;2.42;1.90;;;9.40;99.90;;;;;;5034748;28;20074;-76
2021/05/29 02:37:02;;;;;;;1.83;1.73;;;9.50;99.90;;;;;;5037211;28;20096;-75
2021/05/29 02:39:28;;;;;;;3.80;1.85;;;9.30;99.90;;;;;;5011629;28;20078;-77
2021/05/29 02:41:53;;;;;;;2.85;1.70;;;9.20;99.90;;;;;;5033513;28;20128;-76
2021/05/29 02:44:19;;;;;;;2.22;2.00;;;9.00;99.90;;;;;;5031263;28;20135;-74
2021/05/29 02:46:44;;;;;;;1.92;1.73;;;8.90;99.90;;;;;;5019608;28;20086;-75
2021/05/29 02:49:10;;;;;;;2.15;1.38;;;8.90;99.90;;;;;;5031885;28;20092;-75
2021/05/29 02:51:35;;;;;;;3.15;2.00;;;8.80;99.90;;;;;;5032276;28;20140;-74
2021/05/29 02:54:01;;;;;;;2.25;1.73;;;8.70;99.90;;;;;;5033336;28;20094;-76
2021/05/29 02:56:26;;;;;;;2.20;1.77;;;8.90;99.90;;;;;;5037654;28;20524;-75
2021/05/29 02:58:52;;;;;;;3.20;1.85;;;9.00;99.90;;;;;;5041763;28;20071;-75
2021/05/29 03:01:17;;;;;;;2.30;2.10;;;9.10;99.90;;;;;;5031666;28;20073;-75
2021/05/29 03:03:43;;;;;;;4.88;2.08;;;9.20;99.90;;;;;;5031963;28;20105;-75
2021/05/29 03:06:08;;;;;;;2.38;2.17;;;9.30;99.90;;;;;;5034728;28;20097;-75
2021/05/29 03:08:34;;;;;;;3.63;1.80;;;9.20;99.90;;;;;;5031737;28;20120;-75
2021/05/29 03:11:00;;;;;;;2.25;1.60;;;9.20;99.90;;;;;;5024724;28;20127;-75
2021/05/29 03:13:26;;;;;;;1.85;1.50;;;9.20;99.90;;;;;;5035882;28;20094;-75
2021/05/29 03:15:51;;;;;;;2.20;1.90;;;9.00;99.90;;;;;;5028397;28;20089;-76
2021/05/29 03:18:17;;;;;;;2.20;1.98;;;9.00;99.90;;;;;;5037612;28;20077;-75
2021/05/29 03:20:43;;;;;;;2.38;1.70;;;9.10;99.90;;;;;;5041405;28;20128;-75
2021/05/29 03:23:09;;;;;;;2.58;1.70;;;9.10;99.90;;;;;;5034954;28;20519;-75
2021/05/29 03:25:34;;;;;;;2.28;1.83;;;9.10;99.90;;;;;;5029170;28;20080;-75
2021/05/29 03:28:01;;;;;;;1.80;1.70;;;9.20;99.90;;;;;;5033561;28;20132;-75
2021/05/29 03:30:28;;;;;;;2.13;1.88;;;9.20;99.90;;;;;;5030916;28;20078;-75
2021/05/29 03:32:56;;;;;;;3.05;1.42;;;9.30;99.90;;;;;;5013482;28;20082;-75
2021/05/29 03:35:22;;;;;;;1.98;1.73;;;9.40;99.90;;;;;;5013521;28;20076;-75
2021/05/29 03:37:48;;;;;;;3.42;1.63;;;9.40;99.90;;;;;;5032073;28;20120;-75
2021/05/29 03:40:15;;;;;;;2.47;1.80;;;9.40;99.90;;;;;;5027250;28;20074;-75
2021/05/29 03:42:41;;;;;;;2.65;1.95;;;9.30;99.90;;;;;;5034073;28;20072;-75
2021/05/29 03:45:12;;;;;;;2.47;1.60;;;9.40;99.90;;;;;;5037425;28;20089;-75
2021/05/29 03:47:38;;;;;;;2.20;1.83;;;9.40;99.90;;;;;;5027847;28;20093;-75
2021/05/29 03:50:05;;;;;;;2.60;2.20;;;9.40;99.90;;;;;;5013816;28;20077;-75
2021/05/29 03:52:31;;;;;;;3.05;2.08;;;9.40;99.90;;;;;;5030736;28;20102;-75
2021/05/29 03:54:56;;;;;;;5.93;2.13;;;9.40;99.90;;;;;;5030961;28;20136;-75
2021/05/29 03:57:22;;;;;;;2.50;2.10;;;9.20;99.90;;;;;;5043918;28;20086;-75
2021/05/29 03:59:48;;;;;;;2.40;1.77;;;9.10;99.90;;;;;;5051105;28;20073;-75
2021/05/29 04:02:14;;;;;;;3.67;2.40;;;9.00;99.90;;;;;;5050086;28;20518;-75
2021/05/29 04:04:40;;;;;;;2.40;2.20;;;9.10;99.90;;;;;;5032598;28;20125;-76
2021/05/29 04:07:05;;;;;;;2.88;2.35;;;9.30;99.90;;;;;;5031544;28;20092;-75
2021/05/29 04:09:31;;;;;;;2.97;2.00;;;9.30;99.90;;;;;;5043283;28;20066;-75
2021/05/29 04:11:57;;;;;;;3.15;1.95;;;9.30;99.90;;;;;;5013981;28;20089;-75
2021/05/29 04:14:22;;;;;;;2.67;1.83;;;9.30;99.90;;;;;;5043292;28;20079;-75
2021/05/29 04:16:48;;;;;;;4.38;2.13;;;9.30;99.90;;;;;;5042361;28;20154;-75
2021/05/29 04:19:13;;;;;;;2.63;2.42;;;9.30;99.90;;;;;;5045662;28;20440;-77
2021/05/29 04:21:39;;;;;;;2.90;2.30;;;9.20;99.90;;;;;;5044504;28;20076;-75
2021/05/29 04:24:05;;;;;;;3.03;2.10;;;9.10;99.90;;;;;;5030556;28;20078;-76
2021/05/29 04:26:31;;;;;;;2.40;2.20;;;9.30;99.90;;;;;;5025582;28;20169;-76
2021/05/29 04:28:57;;;;;;;3.38;2.47;;;9.30;99.90;;;;;;5031029;28;20589;-75
2021/05/29 04:31:22;;;;;;;2.17;1.98;;;9.40;99.90;;;;;;5031645;28;20073;-76
2021/05/29 04:33:48;;;;;;;3.47;2.63;;;9.30;99.90;;;;;;5013015;28;20118;-75
2021/05/29 04:36:13;;;;;;;3.05;2.15;;;9.40;99.90;;;;;;5034270;28;20097;-75
2021/05/29 04:38:39;;;;;;;2.20;2.00;;;9.50;99.90;;;;;;5043007;28;20127;-75
2021/05/29 04:41:04;;;;;;;2.40;2.20;;;9.60;99.90;;;;;;5050256;28;20081;-75
2021/05/29 04:43:30;;;;;;;2.70;2.25;;;9.50;99.90;;;;;;5014293;28;20083;-75
2021/05/29 04:45:56;;;;;;;2.15;1.95;;;9.40;99.90;;;;;;5031914;28;20170;-75
2021/05/29 04:48:21;;;;;;;3.90;2.35;;;9.60;99.90;;;;;;5039752;28;20085;-75
2021/05/29 04:53:31;;;;;;;2.92;2.35;;;9.70;99.90;;;;;;5029400;28;20473;-75
2021/05/29 04:55:59;;;;;;;4.50;2.70;;;9.80;99.90;;;;;;5041097;28;20089;-76
2021/05/29 04:58:24;;;;;;;2.42;2.22;;;9.80;99.90;;;;;;5023370;28;20530;-75
2021/05/29 05:00:50;;;;;;;4.10;2.72;;;9.80;99.90;;;;;;5042642;28;20080;-75
2021/05/29 05:03:16;;;;;;;4.95;2.90;;;9.70;99.90;;;;;;5034973;28;20165;-75
2021/05/29 05:05:42;;;;;;;3.38;2.45;;;9.90;99.90;;;;;;5031882;28;20463;-75
2021/05/29 05:08:07;;;;;;;3.38;2.60;;;10.00;99.90;;;;;;5021277;28;20104;-75
2021/05/29 05:10:33;;;;;;;3.88;2.80;;;10.00;99.90;;;;;;5031393;28;20110;-75
2021/05/29 05:12:59;;;;;;;4.20;3.17;;;10.00;99.90;;;;;;5038200;28;20094;-76
2021/05/29 05:15:24;;;;;;;3.42;3.13;;;10.00;99.90;;;;;;5039662;28;20199;-75
2021/05/29 05:17:50;;;;;;;3.22;2.40;;;10.10;99.90;;;;;;5040259;28;20536;-75
2021/05/29 05:20:17;;;;;;;4.13;3.20;;;10.20;99.90;;;;;;5031010;28;20078;-76
2021/05/29 05:22:43;;;;;;;4.32;2.67;;;10.20;99.90;;;;;;5033866;28;20164;-75
2021/05/29 05:25:09;;;;;;;3.03;2.72;;;10.30;99.90;;;;;;5035281;28;20545;-75
2021/05/29 05:27:34;;;;;;;3.65;2.75;;;10.40;99.90;;;;;;5029405;28;20101;-76
2021/05/29 05:30:00;;;;;;;4.28;2.80;;;10.40;99.90;;;;;;5036538;28;20090;-77
2021/05/29 05:32:26;;;;;;;4.22;2.65;;;10.40;99.90;;;;;;5046956;28;20093;-75
2021/05/29 05:34:52;;;;;;;5.43;2.83;;;10.50;99.90;;;;;;5040632;28;20517;-75
2021/05/29 05:37:18;;;;;;;4.70;2.80;;;10.50;99.90;;;;;;5037850;28;20089;-75
2021/05/29 05:39:43;;;;;;;2.55;2.17;;;10.50;99.90;;;;;;5012876;28;20452;-75
2021/05/29 05:42:09;;;;;;;4.43;2.65;;;10.60;99.90;;;;;;5050030;28;20069;-76
2021/05/29 05:44:35;;;;;;;3.55;2.35;;;10.70;99.90;;;;;;5047383;28;20585;-75
2021/05/29 05:47:01;;;;;;;3.25;2.10;;;10.90;99.90;;;;;;5030847;28;20100;-76
2021/05/29 05:49:28;;;;;;;3.05;2.75;;;11.00;99.90;;;;;;5024036;28;20073;-75
2021/05/29 05:51:53;;;;;;;4.15;2.25;;;11.00;99.90;;;;;;5048841;28;20076;-77
2021/05/29 05:54:19;;;;;;;2.60;2.40;;;11.10;99.90;;;;;;5033549;28;20497;-75
2021/05/29 05:56:44;;;;;;;5.50;2.50;;;11.10;99.90;;;;;;5034975;28;20094;-75
2021/05/29 05:59:10;;;;;;;3.13;2.17;;;11.10;99.90;;;;;;5038826;28;20109;-75
2021/05/29 06:01:36;;;;;;;3.15;2.42;;;11.20;99.90;;;;;;5028768;28;20518;-75
2021/05/29 06:04:01;;;;;;;5.07;2.15;;;11.20;99.90;;;;;;5036235;28;20088;-75
2021/05/29 06:06:27;;;;;;;2.75;2.28;;;11.20;99.90;;;;;;5034179;28;20089;-76
2021/05/29 06:08:55;;;;;;;2.63;2.35;;;11.30;99.90;;;;;;5038656;28;20077;-74
2021/05/29 06:11:21;;;;;;;3.50;2.10;;;11.30;99.90;;;;;;5034353;28;20109;-74
2021/05/29 06:19:16;;;;;;;2.88;2.58;;;11.60;99.90;;;;;;5030415;28;20085;-74
2021/05/29 06:21:48;;;;;;;4.00;2.38;;;11.70;99.90;;;;;;5032497;28;20073;-76
2021/05/29 06:24:24;;;;;;;2.78;2.17;;;11.80;99.90;;;;;;5044967;28;20538;-76
2021/05/29 06:26:50;;;;;;;4.03;2.70;;;12.00;99.90;;;;;;5041382;28;20128;-75
2021/05/29 06:29:17;;;;;;;2.72;2.38;;;12.00;99.90;;;;;;5037065;28;20580;-74
2021/05/29 06:31:44;;;;;;;3.10;2.35;;;12.10;99.90;;;;;;5027191;28;20454;-76
2021/05/29 06:34:10;;;;;;;2.53;1.95;;;12.20;99.90;;;;;;5028960;28;20449;-74
2021/05/29 06:36:36;;;;;;;3.42;2.08;;;12.40;99.90;;;;;;5030920;28;20147;-74
2021/05/29 06:39:01;;;;;;;4.53;1.90;;;12.50;99.90;;;;;;5033876;28;20081;-74
2021/05/29 06:41:27;;;;;;;2.92;1.75;;;12.60;99.90;;;;;;5043722;28;20077;-75
2021/05/29 06:43:53;;;;;;;2.15;1.95;;;12.60;99.90;;;;;;5032477;28;20081;-76
2021/05/29 06:46:18;;;;;;;3.70;1.60;;;12.60;99.90;;;;;;5032433;28;20098;-77
2021/05/29 06:48:45;;;;;;;1.95;1.75;;;12.80;99.90;;;;;;5029757;28;20084;-77
2021/05/29 06:51:15;;;;;;;2.40;1.90;;;12.90;99.90;;;;;;5032141;28;20074;-74
2021/05/29 06:53:50;;;;;;;3.17;2.15;;;13.10;99.90;;;;;;5031818;28;20089;-76
2021/05/29 06:59:02;;;;;;;3.13;2.00;;;13.20;99.90;;;;;;5035783;28;21161;-76
2021/05/29 07:01:28;;;;;;;1.90;1.80;;;13.10;99.90;;;;;;5033836;28;20113;-76
2021/05/29 07:03:54;;;;;;;3.53;1.88;;;13.00;99.90;;;;;;5030193;28;20097;-77
2021/05/29 07:06:20;;;;;;;2.00;1.80;;;13.00;99.90;;;;;;5028055;28;20600;-77
2021/05/29 07:08:46;;;;;;;1.63;1.20;;;13.00;99.90;;;;;;5031998;28;20153;-77
2021/05/29 07:11:12;;;;;;;1.40;1.30;;;13.00;99.90;;;;;;5029567;28;20161;-76
2021/05/29 07:13:38;;;;;;;1.35;1.25;;;13.00;99.90;;;;;;5032326;28;20177;-75
2021/05/29 07:16:04;;;;;;;2.63;1.85;;;13.20;99.90;;;;;;5025006;28;20093;-77
2021/05/29 07:18:44;;;;;;;4.78;1.95;;;13.30;99.90;;;;;;5022699;28;20131;-77
2021/05/29 07:21:11;;;;;;;2.47;1.70;;;13.30;99.90;;;;;;5029838;28;20073;-75
2021/05/29 07:23:37;;;;;;;2.00;1.60;;;13.40;99.90;;;;;;5039518;28;20075;-77
2021/05/29 07:26:03;;;;;;;2.42;1.52;;;13.40;99.90;;;;;;5029233;28;20097;-77
2021/05/29 07:28:28;;;;;;;2.10;1.40;;;13.30;99.90;;;;;;5030799;28;20080;-74
2021/05/29 07:30:54;;;;;;;1.65;1.55;;;13.30;99.90;;;;;;5041310;28;20082;-77
2021/05/29 07:33:23;;;;;;;4.85;1.90;;;13.40;99.90;;;;;;5014387;28;20101;-77
2021/05/29 07:35:48;;;;;;;2.08;1.42;;;13.50;99.90;;;;;;5044902;28;20099;-75
2021/05/29 07:38:14;;;;;;;2.08;1.73;;;13.40;99.90;;;;;;5026794;28;20496;-76
2021/05/29 07:40:39;;;;;;;2.38;1.27;;;13.50;99.90;;;;;;5038815;28;20078;-76
2021/05/29 07:43:05;;;;;;;3.00;1.90;;;13.50;99.90;;;;;;5039455;28;20078;-75
2021/05/29 07:45:31;;;;;;;3.20;1.88;;;13.50;99.90;;;;;;5029777;28;20163;-75
2021/05/29 07:47:57;;;;;;;3.17;2.15;;;13.60;99.90;;;;;;5030006;28;20089;-75
2021/05/29 07:50:23;;;;;;;3.65;1.80;;;13.60;99.90;;;;;;5039229;28;20595;-74
2021/05/29 07:52:49;;;;;;;3.58;2.03;;;13.60;99.90;;;;;;5030553;28;20093;-75
2021/05/29 07:55:15;;;;;;;2.72;1.88;;;13.50;99.90;;;;;;5013605;28;20552;-76
2021/05/29 07:57:41;;;;;;;4.07;1.73;;;13.40;99.90;;;;;;5036285;28;20081;-76
2021/05/29 08:00:10;;;;;;;2.22;1.60;;;13.50;99.90;;;;;;5039661;28;20139;-75
2021/05/29 08:02:37;;;;;;;2.03;1.83;;;13.50;99.90;;;;;;5011728;28;20161;-75
2021/05/29 08:05:05;;;;;;;2.35;1.80;;;13.50;99.90;;;;;;5038498;28;20073;-76
2021/05/29 08:07:30;;;;;;;2.20;1.83;;;13.50;99.90;;;;;;5033078;28;20146;-77
2021/05/29 08:09:56;;;;;;;4.35;1.67;;;13.40;99.90;;;;;;5037969;28;20070;-76
2021/05/29 08:12:23;;;;;;;1.83;1.48;;;13.50;99.90;;;;;;5012737;28;20093;-76
2021/05/29 08:14:49;;;;;;;1.65;1.50;;;13.40;99.90;;;;;;5035244;28;20073;-75
2021/05/29 08:17:14;;;;;;;2.30;1.60;;;13.50;99.90;;;;;;5028897;28;20443;-75
2021/05/29 08:19:40;;;;;;;1.40;1.20;;;13.70;99.90;;;;;;5028386;28;20863;-76
2021/05/29 08:22:05;;;;;;;3.13;1.80;;;13.80;99.90;;;;;;5012901;28;20526;-75
2021/05/29 08:24:31;;;;;;;2.90;1.40;;;13.70;99.90;;;;;;5029399;28;20530;-76
2021/05/29 08:26:57;;;;;;;1.42;1.00;;;13.70;99.90;;;;;;5039649;28;20105;-75
2021/05/29 08:29:22;;;;;;;1.55;1.00;;;13.70;99.90;;;;;;5043693;28;20070;-76
2021/05/29 08:31:48;;;;;;;2.35;1.45;;;13.70;99.90;;;;;;5038801;28;20078;-76
2021/05/29 08:34:13;;;;;;;1.38;1.27;;;13.70;99.90;;;;;;5031085;28;20090;-76
2021/05/29 08:36:40;;;;;;;3.00;1.15;;;13.70;99.90;;;;;;5040216;28;20572;-75
2021/05/29 08:39:09;;;;;;;3.67;1.25;;;13.90;99.90;;;;;;5034824;28;20113;-77
2021/05/29 08:41:35;;;;;;;1.88;1.10;;;14.00;99.90;;;;;;5032274;28;20069;-76
2021/05/29 08:44:01;;;;;;;2.42;1.38;;;13.90;99.90;;;;;;5028861;28;20073;-76
2021/05/29 08:46:27;;;;;;;1.55;1.30;;;13.90;99.90;;;;;;5030636;28;20097;-76
2021/05/29 08:48:53;;;;;;;1.95;1.13;;;14.10;99.90;;;;;;5037394;28;20090;-80
2021/05/29 08:51:19;;;;;;;3.08;1.00;;;14.00;99.90;;;;;;5031156;28;20085;-75
2021/05/29 08:53:57;;;;;;;2.45;1.33;;;14.20;99.90;;;;;;5031769;28;20111;-75
2021/05/29 08:56:24;;;;;;;1.27;1.02;;;14.50;99.90;;;;;;5039811;28;20131;-75
2021/05/29 08:58:50;;;;;;;2.50;1.73;;;14.50;99.90;;;;;;5030504;28;20073;-75
2021/05/29 09:01:18;;;;;;;3.10;1.40;;;14.70;99.90;;;;;;5042799;28;20087;-75
2021/05/29 09:03:56;;;;;;;3.95;1.42;;;14.40;99.90;;;;;;5041026;28;20069;-76
2021/05/29 09:06:31;;;;;;;2.05;1.23;;;14.40;99.90;;;;;;5042208;28;20093;-76
2021/05/29 09:09:04;;;;;;;;;;;14.40;99.90;;;;;;5030849;28;20073;-77
2021/05/29 09:11:37;;;;;;;1.85;1.25;;;14.50;99.90;;;;;;5041358;28;20531;-76
2021/05/29 09:14:26;;;;;;;2.30;1.83;;;14.70;99.90;;;;;;5032956;28;20101;-76
2021/05/29 09:17:33;;;;;;;1.63;1.20;;;14.90;99.90;;;;;;5010645;28;20147;-76
2021/05/29 09:20:02;;;;;;;3.25;1.20;;;15.10;99.90;;;;;;4984733;28;20085;-76
2021/05/29 09:22:28;;;;;;;4.30;1.65;;;15.00;98.50;;;;;;5034783;28;20134;-76
2021/05/29 09:25:04;;;;;;;1.55;0.90;;;15.10;97.60;;;;;;5030960;28;20081;-75
2021/05/29 09:27:33;;;;;;;1.20;1.02;;;15.00;97.10;;;;;;5031974;28;20650;-75
2021/05/29 09:29:58;;;;;;;1.13;1.00;;;14.90;97.70;;;;;;5036694;28;20085;-75
2021/05/29 09:32:24;;;;;;;1.25;0.80;;;14.70;97.40;;;;;;5039120;28;20084;-75
2021/05/29 09:34:53;;;;;;;3.03;1.02;;;14.70;97.90;;;;;;5023315;28;20074;-76
2021/05/29 09:37:24;;;;;;;1.90;0.90;;;14.70;99.10;;;;;;5042350;28;20087;-76
2021/05/29 09:39:56;;;;;;;1.92;1.05;;;14.70;97.20;;;;;;5023448;28;20084;-79
2021/05/29 09:42:33;;;;;;;4.93;1.23;;;14.70;97.60;;;;;;5031080;28;20066;-76
2021/05/29 09:45:25;;;;;;;1.33;1.00;;;14.60;97.60;;;;;;5049665;28;20139;-76
2021/05/29 09:48:16;;;;;;;3.03;1.38;;;14.80;99.90;;;;;;5047904;28;20077;-76
2021/05/29 09:51:03;;;;;;;1.98;1.20;;;14.90;98.30;;;;;;5026270;28;20092;-75
2021/05/29 09:53:32;;;;;;;1.63;1.45;;;15.00;99.30;;;;;;5041044;28;20102;-75
2021/05/29 09:55:58;;;;;;;1.15;1.00;;;15.30;99.20;;;;;;5018154;28;20168;-75
2021/05/29 09:59:00;;;;;;;1.63;1.35;;;15.20;99.70;;;;;;5013677;28;20078;-75
2021/05/29 10:01:36;;;;;;;3.78;1.30;;;15.40;99.40;;;;;;5027694;28;20529;-74
2021/05/29 10:04:02;;;;;;;2.50;1.45;;;15.40;97.10;;;;;;5026580;28;20134;-75
2021/05/29 10:06:28;;;;;;;2.38;1.15;;;15.30;98.40;;;;;;5028396;28;20102;-75
2021/05/29 10:08:54;;;;;;;1.23;1.00;;;15.30;97.90;;;;;;5028754;28;20082;-74
2021/05/29 10:11:20;;;;;;;1.80;1.40;;;15.30;98.10;;;;;;5020859;28;20081;-74
2021/05/29 10:13:46;;;;;;;1.52;1.27;;;15.50;99.00;;;;;;5032696;28;20108;-74
2021/05/29 10:16:14;;;;;;;1.65;1.17;;;15.60;97.50;;;;;;5037175;28;20109;-74
2021/05/29 10:18:48;;;;;;;1.52;1.17;;;15.50;97.10;;;;;;5035121;28;20082;-74
2021/05/29 10:21:14;;;;;;;2.55;1.45;;;15.60;96.60;;;;;;5043571;28;20086;-74
2021/05/29 10:23:41;;;;;;;4.20;1.10;;;15.60;96.90;;;;;;5041711;28;20088;-74
2021/05/29 10:26:07;;;;;;;2.15;1.08;;;15.40;98.10;;;;;;5044043;28;20196;-75
2021/05/29 10:28:33;;;;;;;3.83;1.35;;;15.50;96.80;;;;;;5033843;28;20160;-74
2021/05/29 10:30:59;;;;;;;1.92;1.50;;;15.60;97.50;;;;;;5025868;28;20085;-77
2021/05/29 10:33:25;;;;;;;4.60;1.52;;;15.80;98.00;;;;;;5027511;28;20924;-75
2021/05/29 10:35:50;;;;;;;1.95;1.10;;;15.70;97.10;;;;;;5027309;28;20089;-77
2021/05/29 10:38:17;;;;;;;2.22;1.10;;;15.80;98.20;;;;;;5014672;28;20571;-79
2021/05/29 10:40:49;;;;;;;2.08;1.33;;;16.10;95.20;;;;;;5035480;28;20074;-78
2021/05/29 10:43:19;;;;;;;1.63;1.10;;;15.70;94.60;;;;;;5028858;28;20073;-79
2021/05/29 10:45:52;;;;;;;1.77;1.20;;;15.70;94.50;;;;;;5023144;28;20495;-77
2021/05/29 10:48:26;;;;;;;1.83;1.08;;;15.90;95.10;;;;;;5042990;28;20073;-76
2021/05/29 10:51:11;;;;;;;1.73;1.33;;;15.90;95.80;;;;;;5029715;28;20074;-77
2021/05/29 10:53:48;;;;;;;2.58;1.15;;;16.20;97.10;;;;;;5016709;28;20090;-78
2021/05/29 10:56:19;;;;;;;1.75;1.00;;;16.10;96.80;;;;;;5029401;28;20093;-78
2021/05/29 10:58:56;;;;;;;2.63;1.30;;;16.00;96.40;;;;;;5045274;28;20089;-78
2021/05/29 11:01:48;;;;;;;1.50;1.02;;;16.00;95.40;;;;;;5043734;28;20428;-76
2021/05/29 11:04:16;;;;;;;3.53;1.40;;;16.10;95.60;;;;;;5014614;28;20077;-77
2021/05/29 11:06:45;;;;;;;2.38;1.05;;;16.20;95.20;;;;;;5044157;28;21053;-77
2021/05/29 11:09:12;;;;;;;1.80;1.17;;;16.20;93.90;;;;;;5039179;28;20713;-77
2021/05/29 11:14:13;;;;;;;;;;;16.50;94.40;;;;;;5031680;28;20101;-74
2021/05/29 11:16:52;;;;;;;2.50;0.93;;;16.20;91.00;;;;;;5030127;28;19977;-74
2021/05/29 11:19:25;;;;;;;4.53;1.33;;;16.10;94.20;;;;;;5043092;28;20081;-74
2021/05/29 11:22:18;;;;;;;2.20;1.37;;;16.20;95.70;;;;;;5022278;28;20775;-75
2021/05/29 11:24:57;;;;;;;1.42;1.02;;;16.30;94.80;;;;;;5047134;28;20084;-76
2021/05/29 11:27:32;;;;;;;1.67;0.82;;;16.40;92.80;;;;;;5025513;28;20112;-75
2021/05/29 11:30:03;;;;;;;0.95;0.57;;;16.50;92.10;;;;;;5040694;28;20123;-75
2021/05/29 11:32:40;;;;;;;1.70;0.93;;;16.60;93.60;;;;;;5032735;28;20073;-76
2021/05/29 11:35:06;;;;;;;2.25;1.08;;;16.40;92.10;;;;;;5041858;28;20077;-76
2021/05/29 11:37:31;;;;;;;1.15;0.90;;;16.40;94.70;;;;;;5032507;28;20168;-75
2021/05/29 11:39:57;;;;;;;1.23;0.75;;;16.50;95.00;;;;;;5038947;28;20172;-76
2021/05/29 11:42:22;;;;;;;1.15;0.88;;;16.40;94.30;;;;;;5026263;28;20070;-73
2021/05/29 11:44:48;;;;;;;1.27;0.80;;;16.50;93.70;;;;;;5036551;28;20069;-76
2021/05/29 11:47:17;;;;;;;2.05;0.90;;;16.60;94.40;;;;;;5033773;28;20104;-73
2021/05/29 11:49:43;;;;;;;2.15;1.15;;;16.70;92.90;;;;;;5032794;28;20073;-76
2021/05/29 11:52:10;;;;;;;0.82;0.70;;;16.50;93.40;;;;;;5028934;28;20085;-76
2021/05/29 11:54:37;;;;;;;1.60;0.90;;;16.40;93.10;;;;;;5037068;28;20184;-75
2021/05/29 11:57:03;;;;;;;1.77;0.73;;;16.40;93.10;;;;;;5028899;28;20254;-76
2021/05/29 11:59:29;;;;;;;1.08;0.60;;;16.40;92.90;;;;;;5031360;28;20069;-76
2021/05/29 12:01:55;;;;;;;2.67;0.70;;;16.30;92.00;;;;;;5028457;28;20145;-75
2021/05/29 12:04:23;;;;;;;1.33;0.73;;;16.30;93.20;;;;;;5030031;28;20491;-75
2021/05/29 12:06:51;;;;;;;1.05;0.82;;;16.50;93.30;;;;;;5012152;28;20652;-74
2021/05/29 12:09:18;;;;;;;2.50;0.85;;;16.50;93.50;;;;;;5035796;28;20586;-75
2021/05/29 12:11:46;;;;;;;0.77;0.60;;;16.60;95.20;;;;;;5019125;28;20128;-77
2021/05/29 12:17:42;;;;;;;1.58;1.48;;;16.50;93.80;;;;;;5044060;28;20174;-77
2021/05/29 12:20:08;;;;;;;0.95;0.60;;;16.30;94.40;;;;;;5033334;28;20083;-76
2021/05/29 12:22:34;;;;;;;1.67;1.00;;;16.50;95.20;;;;;;5021782;28;20162;-76
2021/05/29 12:25:04;;;;;;;1.85;0.90;;;16.50;93.70;;;;;;5034605;28;20160;-76
2021/05/29 12:27:41;;;;;;;3.28;0.93;;;16.60;93.80;;;;;;5035035;28;20145;-76
2021/05/29 12:30:09;;;;;;;1.65;0.98;;;16.60;93.60;;;;;;5046316;28;20077;-76
2021/05/29 12:32:38;;;;;;;0.85;0.75;;;16.90;93.00;;;;;;5035063;28;20168;-76
2021/05/29 12:35:11;;;;;;;2.00;0.80;;;16.70;95.40;;;;;;5030314;28;20069;-75
2021/05/29 12:37:37;;;;;;;1.30;0.50;;;16.80;94.40;;;;;;5032422;28;20743;-76
2021/05/29 12:40:14;;;;;;;1.55;0.60;;;16.90;91.80;;;;;;5037168;28;20538;-76
2021/05/29 12:42:52;;;;;;;1.30;0.65;;;16.80;92.70;;;;;;5040839;28;20089;-76
2021/05/29 12:45:24;;;;;;;1.85;0.63;;;16.70;93.70;;;;;;5046310;28;20541;-76
2021/05/29 12:47:57;;;;;;;1.10;0.70;;;16.60;93.70;;;;;;5035129;28;20532;-77
2021/05/29 12:51:17;;;;;;;2.45;0.70;;;16.40;94.30;;;;;;5050201;28;20084;-76
2021/05/29 12:53:38;;;;;;;2.05;0.70;;;16.40;94.80;;;;;;5032942;28;20736;-76
2021/05/29 12:56:11;;;;;;;2.40;1.17;;;16.30;94.40;;;;;;5029566;28;20088;-76
2021/05/29 12:58:36;;;;;;;1.02;0.82;;;16.20;95.50;;;;;;5036575;28;20493;-76
2021/05/29 13:11:53;;;;;;;1.98;0.68;;;15.90;95.20;;;;;;5050517;28;20078;-77
2021/05/29 13:15:00;;;;;;;1.05;0.50;;;15.80;93.30;;;;;;5034181;28;20107;-74
2021/05/29 13:17:33;;;;;;;0.80;0.40;;;15.60;88.30;;;;;;5037372;28;20096;-76
2021/05/29 13:20:06;;;;;;;0.57;0.52;;;15.70;91.30;;;;;;5046772;28;20156;-78
2021/05/29 13:22:37;;;;;;;0.57;0.30;;;15.80;89.70;;;;;;5026505;28;20084;-77